sensor_id;sensor_type;location;lat;lon;timestamp;temperature;humidity
55121;DHT22;41019;48.512;9.036;2022-08-05T00:01:11;23.20;71.50
55121;DHT22;41019;48.512;9.036;2022-08-05T00:03:38;23.20;71.70
55121;DHT22;41019;48.512;9.036;2022-08-05T00:06:04;23.10;72.20
55121;DHT22;41019;48.512;9.036;2022-08-05T00:08:30;23.10;71.20
55121;DHT22;41019;48.512;9.036;2022-08-05T00:10:57;23.00;69.60
55121;DHT22;41019;48.512;9.036;2022-08-05T00:13:23;23.00;70.30
55121;DHT22;41019;48.512;9.036;2022-08-05T00:15:49;23.00;70.10
55121;DHT22;41019;48.512;9.036;2022-08-05T00:18:15;22.90;70.70
55121;DHT22;41019;48.512;9.036;2022-08-05T00:20:41;22.90;68.20
55121;DHT22;41019;48.512;9.036;2022-08-05T00:23:07;22.90;69.50
55121;DHT22;41019;48.512;9.036;2022-08-05T00:25:33;22.80;69.60
55121;DHT22;41019;48.512;9.036;2022-08-05T00:27:59;22.80;70.00
55121;DHT22;41019;48.512;9.036;2022-08-05T00:30:25;22.80;70.20
55121;DHT22;41019;48.512;9.036;2022-08-05T00:32:51;22.70;71.20
55121;DHT22;41019;48.512;9.036;2022-08-05T00:35:17;22.70;71.30
55121;DHT22;41019;48.512;9.036;2022-08-05T00:37:43;22.70;71.70
55121;DHT22;41019;48.512;9.036;2022-08-05T00:40:09;22.60;72.40
55121;DHT22;41019;48.512;9.036;2022-08-05T00:42:37;22.60;72.60
55121;DHT22;41019;48.512;9.036;2022-08-05T00:45:08;22.60;73.00
55121;DHT22;41019;48.512;9.036;2022-08-05T00:47:34;22.50;73.20
55121;DHT22;41019;48.512;9.036;2022-08-05T00:50:01;22.40;73.20
55121;DHT22;41019;48.512;9.036;2022-08-05T00:52:26;22.40;73.10
55121;DHT22;41019;48.512;9.036;2022-08-05T00:54:53;22.30;72.80
55121;DHT22;41019;48.512;9.036;2022-08-05T00:57:19;22.30;73.20
55121;DHT22;41019;48.512;9.036;2022-08-05T00:59:45;22.20;73.20
55121;DHT22;41019;48.512;9.036;2022-08-05T01:02:10;22.20;73.60
55121;DHT22;41019;48.512;9.036;2022-08-05T01:04:36;22.20;72.50
55121;DHT22;41019;48.512;9.036;2022-08-05T01:07:03;22.10;72.40
55121;DHT22;41019;48.512;9.036;2022-08-05T01:09:28;22.10;70.90
55121;DHT22;41019;48.512;9.036;2022-08-05T01:11:58;22.10;70.60
55121;DHT22;41019;48.512;9.036;2022-08-05T01:14:39;22.00;69.60
55121;DHT22;41019;48.512;9.036;2022-08-05T01:17:17;22.00;69.40
55121;DHT22;41019;48.512;9.036;2022-08-05T01:20:14;22.00;69.80
55121;DHT22;41019;48.512;9.036;2022-08-05T01:28:05;22.00;68.50
55121;DHT22;41019;48.512;9.036;2022-08-05T01:30:37;22.00;66.30
55121;DHT22;41019;48.512;9.036;2022-08-05T01:33:08;21.90;63.80
55121;DHT22;41019;48.512;9.036;2022-08-05T01:35:38;22.00;62.30
55121;DHT22;41019;48.512;9.036;2022-08-05T01:38:07;22.10;61.70
55121;DHT22;41019;48.512;9.036;2022-08-05T01:40:36;22.20;62.50
55121;DHT22;41019;48.512;9.036;2022-08-05T01:43:04;22.20;63.20
55121;DHT22;41019;48.512;9.036;2022-08-05T01:45:33;22.20;64.10
55121;DHT22;41019;48.512;9.036;2022-08-05T01:48:00;22.20;63.10
55121;DHT22;41019;48.512;9.036;2022-08-05T01:50:39;22.20;63.10
55121;DHT22;41019;48.512;9.036;2022-08-05T01:53:13;22.20;62.90
55121;DHT22;41019;48.512;9.036;2022-08-05T01:55:44;22.20;62.90
55121;DHT22;41019;48.512;9.036;2022-08-05T01:58:12;22.20;62.40
55121;DHT22;41019;48.512;9.036;2022-08-05T02:00:44;22.10;63.30
55121;DHT22;41019;48.512;9.036;2022-08-05T02:03:27;22.10;62.80
55121;DHT22;41019;48.512;9.036;2022-08-05T02:05:54;22.10;63.20
55121;DHT22;41019;48.512;9.036;2022-08-05T02:08:21;22.10;63.40
55121;DHT22;41019;48.512;9.036;2022-08-05T02:10:52;22.10;63.60
55121;DHT22;41019;48.512;9.036;2022-08-05T02:13:40;22.00;65.70
55121;DHT22;41019;48.512;9.036;2022-08-05T02:16:32;22.00;65.80
55121;DHT22;41019;48.512;9.036;2022-08-05T02:19:06;22.00;65.40
55121;DHT22;41019;48.512;9.036;2022-08-05T02:21:45;21.90;65.80
55121;DHT22;41019;48.512;9.036;2022-08-05T02:24:18;21.90;65.70
55121;DHT22;41019;48.512;9.036;2022-08-05T02:26:49;21.90;64.20
55121;DHT22;41019;48.512;9.036;2022-08-05T02:29:20;21.80;63.50
55121;DHT22;41019;48.512;9.036;2022-08-05T02:31:49;21.80;63.00
55121;DHT22;41019;48.512;9.036;2022-08-05T02:34:19;21.80;63.70
55121;DHT22;41019;48.512;9.036;2022-08-05T02:37:00;21.80;63.90
55121;DHT22;41019;48.512;9.036;2022-08-05T02:39:31;21.80;63.80
55121;DHT22;41019;48.512;9.036;2022-08-05T02:42:02;21.80;64.10
55121;DHT22;41019;48.512;9.036;2022-08-05T02:44:31;21.80;65.60
55121;DHT22;41019;48.512;9.036;2022-08-05T02:47:00;21.80;66.00
55121;DHT22;41019;48.512;9.036;2022-08-05T02:49:34;21.80;67.40
55121;DHT22;41019;48.512;9.036;2022-08-05T02:52:02;21.80;67.50
55121;DHT22;41019;48.512;9.036;2022-08-05T02:57:13;21.70;67.70
55121;DHT22;41019;48.512;9.036;2022-08-05T02:59:41;21.70;68.10
55121;DHT22;41019;48.512;9.036;2022-08-05T03:02:10;21.70;68.90
55121;DHT22;41019;48.512;9.036;2022-08-05T03:04:38;21.70;70.00
55121;DHT22;41019;48.512;9.036;2022-08-05T03:07:05;21.60;69.70
55121;DHT22;41019;48.512;9.036;2022-08-05T03:09:32;21.60;69.50
55121;DHT22;41019;48.512;9.036;2022-08-05T03:11:58;21.50;69.30
55121;DHT22;41019;48.512;9.036;2022-08-05T03:14:24;21.50;68.90
55121;DHT22;41019;48.512;9.036;2022-08-05T03:16:50;21.50;69.60
55121;DHT22;41019;48.512;9.036;2022-08-05T03:19:16;21.40;70.30
55121;DHT22;41019;48.512;9.036;2022-08-05T03:21:41;21.40;70.40
55121;DHT22;41019;48.512;9.036;2022-08-05T03:24:08;21.30;70.40
55121;DHT22;41019;48.512;9.036;2022-08-05T03:26:34;21.30;71.40
55121;DHT22;41019;48.512;9.036;2022-08-05T03:29:01;21.20;71.10
55121;DHT22;41019;48.512;9.036;2022-08-05T03:31:28;21.20;70.80
55121;DHT22;41019;48.512;9.036;2022-08-05T03:33:54;21.20;70.80
55121;DHT22;41019;48.512;9.036;2022-08-05T03:36:21;21.20;71.90
55121;DHT22;41019;48.512;9.036;2022-08-05T03:38:47;21.10;71.10
55121;DHT22;41019;48.512;9.036;2022-08-05T03:41:14;21.20;71.30
55121;DHT22;41019;48.512;9.036;2022-08-05T03:43:40;21.10;71.60
55121;DHT22;41019;48.512;9.036;2022-08-05T03:46:06;21.10;71.70
55121;DHT22;41019;48.512;9.036;2022-08-05T03:48:32;21.10;71.90
55121;DHT22;41019;48.512;9.036;2022-08-05T03:51:25;21.10;72.60
55121;DHT22;41019;48.512;9.036;2022-08-05T03:53:54;21.00;72.70
55121;DHT22;41019;48.512;9.036;2022-08-05T03:56:35;21.00;72.80
55121;DHT22;41019;48.512;9.036;2022-08-05T03:59:08;20.90;73.20
55121;DHT22;41019;48.512;9.036;2022-08-05T04:01:38;20.90;73.20
55121;DHT22;41019;48.512;9.036;2022-08-05T04:04:07;20.90;73.40
55121;DHT22;41019;48.512;9.036;2022-08-05T04:06:36;20.80;73.50
55121;DHT22;41019;48.512;9.036;2022-08-05T04:09:03;20.80;73.10
55121;DHT22;41019;48.512;9.036;2022-08-05T04:11:32;20.80;73.40
55121;DHT22;41019;48.512;9.036;2022-08-05T04:13:59;20.70;73.70
55121;DHT22;41019;48.512;9.036;2022-08-05T04:16:26;20.70;73.70
55121;DHT22;41019;48.512;9.036;2022-08-05T04:18:55;20.70;74.90
55121;DHT22;41019;48.512;9.036;2022-08-05T04:21:21;20.70;74.70
55121;DHT22;41019;48.512;9.036;2022-08-05T04:23:47;20.70;74.30
55121;DHT22;41019;48.512;9.036;2022-08-05T04:26:14;20.70;73.60
55121;DHT22;41019;48.512;9.036;2022-08-05T04:28:40;20.70;73.10
55121;DHT22;41019;48.512;9.036;2022-08-05T04:31:06;20.60;71.30
55121;DHT22;41019;48.512;9.036;2022-08-05T04:33:32;20.60;70.60
55121;DHT22;41019;48.512;9.036;2022-08-05T04:35:58;20.70;70.70
55121;DHT22;41019;48.512;9.036;2022-08-05T04:38:24;20.70;70.20
55121;DHT22;41019;48.512;9.036;2022-08-05T04:40:50;20.70;69.80
55121;DHT22;41019;48.512;9.036;2022-08-05T04:43:16;20.80;69.70
55121;DHT22;41019;48.512;9.036;2022-08-05T04:45:42;20.80;69.10
55121;DHT22;41019;48.512;9.036;2022-08-05T04:48:10;20.90;66.80
55121;DHT22;41019;48.512;9.036;2022-08-05T04:50:44;20.90;66.00
55121;DHT22;41019;48.512;9.036;2022-08-05T04:53:13;21.10;64.70
55121;DHT22;41019;48.512;9.036;2022-08-05T04:55:39;21.10;65.50
55121;DHT22;41019;48.512;9.036;2022-08-05T04:58:08;21.20;65.90
55121;DHT22;41019;48.512;9.036;2022-08-05T05:00:36;21.20;67.50
55121;DHT22;41019;48.512;9.036;2022-08-05T05:03:04;21.20;68.20
55121;DHT22;41019;48.512;9.036;2022-08-05T05:05:31;21.20;67.10
55121;DHT22;41019;48.512;9.036;2022-08-05T05:08:03;21.20;64.60
55121;DHT22;41019;48.512;9.036;2022-08-05T05:10:31;21.40;62.20
55121;DHT22;41019;48.512;9.036;2022-08-05T05:12:57;21.50;61.50
55121;DHT22;41019;48.512;9.036;2022-08-05T05:15:24;21.70;60.70
55121;DHT22;41019;48.512;9.036;2022-08-05T05:17:51;21.90;60.30
55121;DHT22;41019;48.512;9.036;2022-08-05T05:20:16;22.00;59.90
55121;DHT22;41019;48.512;9.036;2022-08-05T05:22:42;22.10;60.10
55121;DHT22;41019;48.512;9.036;2022-08-05T05:25:08;22.30;59.50
55121;DHT22;41019;48.512;9.036;2022-08-05T05:27:35;22.40;60.30
55121;DHT22;41019;48.512;9.036;2022-08-05T05:30:02;22.50;60.90
55121;DHT22;41019;48.512;9.036;2022-08-05T05:32:28;22.60;61.20
55121;DHT22;41019;48.512;9.036;2022-08-05T05:34:54;22.60;61.60
55121;DHT22;41019;48.512;9.036;2022-08-05T05:37:20;22.60;62.10
55121;DHT22;41019;48.512;9.036;2022-08-05T05:39:46;22.60;61.80
55121;DHT22;41019;48.512;9.036;2022-08-05T05:42:12;22.70;61.60
55121;DHT22;41019;48.512;9.036;2022-08-05T05:44:38;22.70;61.40
55121;DHT22;41019;48.512;9.036;2022-08-05T05:47:04;22.70;61.70
55121;DHT22;41019;48.512;9.036;2022-08-05T05:49:29;22.70;61.60
55121;DHT22;41019;48.512;9.036;2022-08-05T05:51:55;22.70;63.40
55121;DHT22;41019;48.512;9.036;2022-08-05T05:54:21;22.80;63.20
55121;DHT22;41019;48.512;9.036;2022-08-05T05:56:47;22.90;62.30
55121;DHT22;41019;48.512;9.036;2022-08-05T05:59:13;23.00;60.90
55121;DHT22;41019;48.512;9.036;2022-08-05T06:01:40;23.10;59.80
55121;DHT22;41019;48.512;9.036;2022-08-05T06:04:11;23.20;59.90
55121;DHT22;41019;48.512;9.036;2022-08-05T06:06:42;23.30;59.70
55121;DHT22;41019;48.512;9.036;2022-08-05T06:09:08;23.40;59.70
55121;DHT22;41019;48.512;9.036;2022-08-05T06:11:34;23.50;59.30
55121;DHT22;41019;48.512;9.036;2022-08-05T06:14:01;23.50;59.20
55121;DHT22;41019;48.512;9.036;2022-08-05T06:16:27;23.60;59.00
55121;DHT22;41019;48.512;9.036;2022-08-05T06:18:53;23.70;58.80
55121;DHT22;41019;48.512;9.036;2022-08-05T06:21:19;23.70;58.10
55121;DHT22;41019;48.512;9.036;2022-08-05T06:23:45;23.90;57.60
55121;DHT22;41019;48.512;9.036;2022-08-05T06:26:11;23.90;56.60
55121;DHT22;41019;48.512;9.036;2022-08-05T06:28:37;24.00;57.90
55121;DHT22;41019;48.512;9.036;2022-08-05T06:31:03;24.10;57.20
55121;DHT22;41019;48.512;9.036;2022-08-05T06:33:29;24.30;57.00
55121;DHT22;41019;48.512;9.036;2022-08-05T06:35:55;24.40;57.00
55121;DHT22;41019;48.512;9.036;2022-08-05T06:38:20;24.40;56.60
55121;DHT22;41019;48.512;9.036;2022-08-05T06:40:46;24.60;56.80
55121;DHT22;41019;48.512;9.036;2022-08-05T06:43:12;24.70;56.20
55121;DHT22;41019;48.512;9.036;2022-08-05T06:45:38;24.70;55.80
55121;DHT22;41019;48.512;9.036;2022-08-05T06:48:04;24.90;56.90
55121;DHT22;41019;48.512;9.036;2022-08-05T06:50:30;25.00;57.40
55121;DHT22;41019;48.512;9.036;2022-08-05T06:52:55;25.10;56.30
55121;DHT22;41019;48.512;9.036;2022-08-05T06:55:22;25.30;56.50
55121;DHT22;41019;48.512;9.036;2022-08-05T06:57:48;25.50;56.10
55121;DHT22;41019;48.512;9.036;2022-08-05T07:00:13;25.70;55.40
55121;DHT22;41019;48.512;9.036;2022-08-05T07:02:43;25.90;55.60
55121;DHT22;41019;48.512;9.036;2022-08-05T07:05:10;26.10;55.20
55121;DHT22;41019;48.512;9.036;2022-08-05T07:07:37;26.30;54.30
55121;DHT22;41019;48.512;9.036;2022-08-05T07:10:03;26.40;55.00
55121;DHT22;41019;48.512;9.036;2022-08-05T07:12:29;26.70;54.90
55121;DHT22;41019;48.512;9.036;2022-08-05T07:15:14;26.90;54.10
55121;DHT22;41019;48.512;9.036;2022-08-05T07:17:58;27.10;53.90
55121;DHT22;41019;48.512;9.036;2022-08-05T07:20:24;27.40;54.60
55121;DHT22;41019;48.512;9.036;2022-08-05T07:22:50;27.50;53.10
55121;DHT22;41019;48.512;9.036;2022-08-05T07:25:16;27.70;52.40
55121;DHT22;41019;48.512;9.036;2022-08-05T07:27:41;27.90;51.50
55121;DHT22;41019;48.512;9.036;2022-08-05T07:30:08;28.10;52.60
55121;DHT22;41019;48.512;9.036;2022-08-05T07:32:35;28.30;50.20
55121;DHT22;41019;48.512;9.036;2022-08-05T07:35:01;28.50;49.50
55121;DHT22;41019;48.512;9.036;2022-08-05T07:37:27;28.60;48.70
55121;DHT22;41019;48.512;9.036;2022-08-05T07:39:53;28.70;48.80
55121;DHT22;41019;48.512;9.036;2022-08-05T07:42:19;28.90;48.70
55121;DHT22;41019;48.512;9.036;2022-08-05T07:44:45;29.10;48.50
55121;DHT22;41019;48.512;9.036;2022-08-05T07:47:12;29.30;46.90
55121;DHT22;41019;48.512;9.036;2022-08-05T07:49:38;29.50;46.80
55121;DHT22;41019;48.512;9.036;2022-08-05T07:52:04;29.60;45.90
55121;DHT22;41019;48.512;9.036;2022-08-05T07:54:30;29.80;45.40
55121;DHT22;41019;48.512;9.036;2022-08-05T07:56:56;30.00;43.60
55121;DHT22;41019;48.512;9.036;2022-08-05T07:59:22;30.10;42.80
55121;DHT22;41019;48.512;9.036;2022-08-05T08:01:48;30.20;41.70
55121;DHT22;41019;48.512;9.036;2022-08-05T08:04:13;30.40;42.10
55121;DHT22;41019;48.512;9.036;2022-08-05T08:06:39;30.50;41.40
55121;DHT22;41019;48.512;9.036;2022-08-05T08:09:05;30.60;41.30
55121;DHT22;41019;48.512;9.036;2022-08-05T08:11:31;30.60;39.70
55121;DHT22;41019;48.512;9.036;2022-08-05T08:13:57;30.70;39.90
55121;DHT22;41019;48.512;9.036;2022-08-05T08:16:23;30.90;40.20
55121;DHT22;41019;48.512;9.036;2022-08-05T08:18:49;31.10;40.50
55121;DHT22;41019;48.512;9.036;2022-08-05T08:21:14;31.30;39.80
55121;DHT22;41019;48.512;9.036;2022-08-05T08:23:40;31.40;39.80
55121;DHT22;41019;48.512;9.036;2022-08-05T08:26:06;31.50;39.20
55121;DHT22;41019;48.512;9.036;2022-08-05T08:28:32;31.70;38.00
55121;DHT22;41019;48.512;9.036;2022-08-05T08:30:58;31.70;38.10
55121;DHT22;41019;48.512;9.036;2022-08-05T08:33:24;31.80;38.80
55121;DHT22;41019;48.512;9.036;2022-08-05T08:35:50;32.00;38.10
55121;DHT22;41019;48.512;9.036;2022-08-05T08:38:15;32.10;38.50
55121;DHT22;41019;48.512;9.036;2022-08-05T08:40:42;32.30;37.90
55121;DHT22;41019;48.512;9.036;2022-08-05T08:43:11;32.30;37.80
55121;DHT22;41019;48.512;9.036;2022-08-05T08:45:37;32.40;37.80
55121;DHT22;41019;48.512;9.036;2022-08-05T08:48:05;32.50;37.40
55121;DHT22;41019;48.512;9.036;2022-08-05T08:50:32;32.70;37.20
55121;DHT22;41019;48.512;9.036;2022-08-05T08:53:03;32.80;36.90
55121;DHT22;41019;48.512;9.036;2022-08-05T08:55:30;32.90;37.40
55121;DHT22;41019;48.512;9.036;2022-08-05T08:57:59;32.90;37.00
55121;DHT22;41019;48.512;9.036;2022-08-05T09:00:26;32.70;37.00
55121;DHT22;41019;48.512;9.036;2022-08-05T09:02:52;32.40;37.80
55121;DHT22;41019;48.512;9.036;2022-08-05T09:05:19;32.30;37.90
55121;DHT22;41019;48.512;9.036;2022-08-05T09:07:46;32.10;37.90
55121;DHT22;41019;48.512;9.036;2022-08-05T09:10:12;31.90;38.30
55121;DHT22;41019;48.512;9.036;2022-08-05T09:12:39;31.80;38.50
55121;DHT22;41019;48.512;9.036;2022-08-05T09:15:05;31.60;38.20
55121;DHT22;41019;48.512;9.036;2022-08-05T09:17:31;31.60;38.40
55121;DHT22;41019;48.512;9.036;2022-08-05T09:19:58;31.70;38.30
55121;DHT22;41019;48.512;9.036;2022-08-05T09:22:25;31.70;37.90
55121;DHT22;41019;48.512;9.036;2022-08-05T09:25:02;31.90;38.70
55121;DHT22;41019;48.512;9.036;2022-08-05T09:27:36;32.10;37.50
55121;DHT22;41019;48.512;9.036;2022-08-05T09:30:05;32.30;36.90
55121;DHT22;41019;48.512;9.036;2022-08-05T09:32:37;32.50;37.20
55121;DHT22;41019;48.512;9.036;2022-08-05T09:35:15;32.70;36.80
55121;DHT22;41019;48.512;9.036;2022-08-05T09:37:52;32.90;37.10
55121;DHT22;41019;48.512;9.036;2022-08-05T09:40:33;33.00;36.00
55121;DHT22;41019;48.512;9.036;2022-08-05T09:43:01;33.30;35.90
55121;DHT22;41019;48.512;9.036;2022-08-05T09:45:40;33.40;35.80
55121;DHT22;41019;48.512;9.036;2022-08-05T09:48:40;33.50;35.90
55121;DHT22;41019;48.512;9.036;2022-08-05T09:51:07;33.70;35.60
55121;DHT22;41019;48.512;9.036;2022-08-05T09:53:49;33.70;35.00
55121;DHT22;41019;48.512;9.036;2022-08-05T09:56:27;33.90;35.10
55121;DHT22;41019;48.512;9.036;2022-08-05T09:59:07;34.20;35.30
55121;DHT22;41019;48.512;9.036;2022-08-05T10:01:35;34.50;35.50
55121;DHT22;41019;48.512;9.036;2022-08-05T10:04:08;34.40;34.90
55121;DHT22;41019;48.512;9.036;2022-08-05T10:06:42;34.40;34.40
55121;DHT22;41019;48.512;9.036;2022-08-05T10:09:19;34.30;34.70
55121;DHT22;41019;48.512;9.036;2022-08-05T10:11:48;34.30;34.40
55121;DHT22;41019;48.512;9.036;2022-08-05T10:14:29;34.20;34.00
55121;DHT22;41019;48.512;9.036;2022-08-05T10:17:10;34.50;34.50
55121;DHT22;41019;48.512;9.036;2022-08-05T10:19:36;34.60;34.00
55121;DHT22;41019;48.512;9.036;2022-08-05T10:22:03;34.60;33.80
55121;DHT22;41019;48.512;9.036;2022-08-05T10:24:31;34.80;34.70
55121;DHT22;41019;48.512;9.036;2022-08-05T10:26:57;34.90;33.40
55121;DHT22;41019;48.512;9.036;2022-08-05T10:29:25;34.90;34.60
55121;DHT22;41019;48.512;9.036;2022-08-05T10:31:52;34.80;34.10
55121;DHT22;41019;48.512;9.036;2022-08-05T10:34:18;34.80;34.40
55121;DHT22;41019;48.512;9.036;2022-08-05T10:36:45;34.90;34.80
55121;DHT22;41019;48.512;9.036;2022-08-05T10:39:18;35.00;34.50
55121;DHT22;41019;48.512;9.036;2022-08-05T10:42:00;35.20;33.80
55121;DHT22;41019;48.512;9.036;2022-08-05T10:44:28;35.30;34.20
55121;DHT22;41019;48.512;9.036;2022-08-05T10:46:56;35.20;33.80
55121;DHT22;41019;48.512;9.036;2022-08-05T10:49:24;35.20;33.20
55121;DHT22;41019;48.512;9.036;2022-08-05T10:51:53;35.20;33.30
55121;DHT22;41019;48.512;9.036;2022-08-05T10:54:24;35.50;33.40
55121;DHT22;41019;48.512;9.036;2022-08-05T10:57:12;35.80;32.90
55121;DHT22;41019;48.512;9.036;2022-08-05T11:00:13;36.20;33.80
55121;DHT22;41019;48.512;9.036;2022-08-05T11:05:30;36.30;33.30
55121;DHT22;41019;48.512;9.036;2022-08-05T11:08:02;36.40;32.50
55121;DHT22;41019;48.512;9.036;2022-08-05T11:10:29;36.50;32.90
55121;DHT22;41019;48.512;9.036;2022-08-05T11:12:57;36.70;32.50
55121;DHT22;41019;48.512;9.036;2022-08-05T11:15:32;37.00;32.40
55121;DHT22;41019;48.512;9.036;2022-08-05T11:20:47;37.50;32.20
55121;DHT22;41019;48.512;9.036;2022-08-05T11:28:44;37.80;31.80
55121;DHT22;41019;48.512;9.036;2022-08-05T11:33:53;37.80;31.20
55121;DHT22;41019;48.512;9.036;2022-08-05T11:36:39;37.80;31.30
55121;DHT22;41019;48.512;9.036;2022-08-05T11:39:09;37.90;32.20
55121;DHT22;41019;48.512;9.036;2022-08-05T11:41:36;38.10;30.60
55121;DHT22;41019;48.512;9.036;2022-08-05T11:44:06;37.90;30.40
55121;DHT22;41019;48.512;9.036;2022-08-05T11:49:06;37.90;30.00
55121;DHT22;41019;48.512;9.036;2022-08-05T11:51:33;38.00;30.10
55121;DHT22;41019;48.512;9.036;2022-08-05T11:54:00;38.10;31.30
55121;DHT22;41019;48.512;9.036;2022-08-05T11:59:15;37.90;30.00
55121;DHT22;41019;48.512;9.036;2022-08-05T12:02:02;37.60;30.40
55121;DHT22;41019;48.512;9.036;2022-08-05T12:04:42;37.30;30.50
55121;DHT22;41019;48.512;9.036;2022-08-05T12:07:11;37.40;30.70
55121;DHT22;41019;48.512;9.036;2022-08-05T12:09:40;37.30;30.80
55121;DHT22;41019;48.512;9.036;2022-08-05T12:12:07;37.50;30.60
55121;DHT22;41019;48.512;9.036;2022-08-05T12:14:41;37.60;30.60
55121;DHT22;41019;48.512;9.036;2022-08-05T12:17:12;37.70;30.70
55121;DHT22;41019;48.512;9.036;2022-08-05T12:19:48;38.00;30.80
55121;DHT22;41019;48.512;9.036;2022-08-05T12:22:16;38.20;31.30
55121;DHT22;41019;48.512;9.036;2022-08-05T12:24:44;38.30;31.30
55121;DHT22;41019;48.512;9.036;2022-08-05T12:27:22;38.40;30.90
55121;DHT22;41019;48.512;9.036;2022-08-05T12:30:05;38.60;31.40
55121;DHT22;41019;48.512;9.036;2022-08-05T12:32:33;38.70;31.30
55121;DHT22;41019;48.512;9.036;2022-08-05T12:35:05;38.90;30.60
55121;DHT22;41019;48.512;9.036;2022-08-05T12:37:32;38.80;30.50
55121;DHT22;41019;48.512;9.036;2022-08-05T12:39:59;38.90;30.40
55121;DHT22;41019;48.512;9.036;2022-08-05T12:42:28;38.90;30.80
55121;DHT22;41019;48.512;9.036;2022-08-05T12:45:05;38.90;30.20
55121;DHT22;41019;48.512;9.036;2022-08-05T12:47:32;39.00;30.30
55121;DHT22;41019;48.512;9.036;2022-08-05T12:50:00;39.20;30.30
55121;DHT22;41019;48.512;9.036;2022-08-05T12:52:26;39.30;30.90
55121;DHT22;41019;48.512;9.036;2022-08-05T12:54:52;39.30;30.60
55121;DHT22;41019;48.512;9.036;2022-08-05T12:57:18;39.00;30.00
55121;DHT22;41019;48.512;9.036;2022-08-05T12:59:53;38.80;30.30
55121;DHT22;41019;48.512;9.036;2022-08-05T13:02:26;38.90;30.40
55121;DHT22;41019;48.512;9.036;2022-08-05T13:04:54;38.70;30.40
55121;DHT22;41019;48.512;9.036;2022-08-05T13:07:23;38.70;30.40
55121;DHT22;41019;48.512;9.036;2022-08-05T13:09:51;38.70;30.70
55121;DHT22;41019;48.512;9.036;2022-08-05T13:12:20;38.80;30.40
55121;DHT22;41019;48.512;9.036;2022-08-05T13:14:48;38.80;31.10
55121;DHT22;41019;48.512;9.036;2022-08-05T13:20:09;38.60;30.70
55121;DHT22;41019;48.512;9.036;2022-08-05T13:22:40;38.70;30.40
55121;DHT22;41019;48.512;9.036;2022-08-05T13:25:12;38.60;30.70
55121;DHT22;41019;48.512;9.036;2022-08-05T13:27:48;38.20;30.50
55121;DHT22;41019;48.512;9.036;2022-08-05T13:30:18;38.10;30.90
55121;DHT22;41019;48.512;9.036;2022-08-05T13:32:46;38.40;30.90
55121;DHT22;41019;48.512;9.036;2022-08-05T13:35:17;38.30;30.80
55121;DHT22;41019;48.512;9.036;2022-08-05T13:37:44;38.30;30.80
55121;DHT22;41019;48.512;9.036;2022-08-05T13:40:10;38.10;30.60
55121;DHT22;41019;48.512;9.036;2022-08-05T13:42:36;38.00;30.90
55121;DHT22;41019;48.512;9.036;2022-08-05T13:45:04;37.80;31.30
55121;DHT22;41019;48.512;9.036;2022-08-05T13:47:31;37.70;31.40
55121;DHT22;41019;48.512;9.036;2022-08-05T13:50:00;37.50;31.60
55121;DHT22;41019;48.512;9.036;2022-08-05T13:52:26;37.20;31.50
55121;DHT22;41019;48.512;9.036;2022-08-05T13:54:54;37.00;31.90
55121;DHT22;41019;48.512;9.036;2022-08-05T13:57:21;36.70;32.10
55121;DHT22;41019;48.512;9.036;2022-08-05T13:59:47;36.30;32.10
55121;DHT22;41019;48.512;9.036;2022-08-05T14:02:13;36.10;32.30
55121;DHT22;41019;48.512;9.036;2022-08-05T14:04:45;35.80;32.70
55121;DHT22;41019;48.512;9.036;2022-08-05T14:07:35;35.70;32.70
55121;DHT22;41019;48.512;9.036;2022-08-05T14:10:12;35.50;33.50
55121;DHT22;41019;48.512;9.036;2022-08-05T14:12:39;35.30;34.00
55121;DHT22;41019;48.512;9.036;2022-08-05T14:15:06;35.00;35.40
55121;DHT22;41019;48.512;9.036;2022-08-05T14:17:32;34.80;35.70
55121;DHT22;41019;48.512;9.036;2022-08-05T14:19:58;34.60;39.40
55121;DHT22;41019;48.512;9.036;2022-08-05T14:22:23;34.40;38.20
55121;DHT22;41019;48.512;9.036;2022-08-05T14:24:50;34.10;40.30
55121;DHT22;41019;48.512;9.036;2022-08-05T14:27:16;33.90;41.80
55121;DHT22;41019;48.512;9.036;2022-08-05T14:29:42;33.60;41.70
55121;DHT22;41019;48.512;9.036;2022-08-05T14:32:08;33.30;41.00
55121;DHT22;41019;48.512;9.036;2022-08-05T14:34:34;33.10;41.90
55121;DHT22;41019;48.512;9.036;2022-08-05T14:37:01;32.90;42.40
55121;DHT22;41019;48.512;9.036;2022-08-05T14:39:27;32.60;43.80
55121;DHT22;41019;48.512;9.036;2022-08-05T14:41:53;32.50;46.10
55121;DHT22;41019;48.512;9.036;2022-08-05T14:44:19;32.40;46.70
55121;DHT22;41019;48.512;9.036;2022-08-05T14:46:45;32.50;44.80
55121;DHT22;41019;48.512;9.036;2022-08-05T14:49:11;32.60;42.50
55121;DHT22;41019;48.512;9.036;2022-08-05T14:51:38;32.70;40.40
55121;DHT22;41019;48.512;9.036;2022-08-05T14:54:08;32.90;41.60
55121;DHT22;41019;48.512;9.036;2022-08-05T14:56:34;32.90;43.90
55121;DHT22;41019;48.512;9.036;2022-08-05T14:59:00;33.00;43.70
55121;DHT22;41019;48.512;9.036;2022-08-05T15:01:27;32.70;44.30
55121;DHT22;41019;48.512;9.036;2022-08-05T15:03:53;32.70;44.50
55121;DHT22;41019;48.512;9.036;2022-08-05T15:06:19;32.60;44.00
55121;DHT22;41019;48.512;9.036;2022-08-05T15:08:45;32.50;44.30
55121;DHT22;41019;48.512;9.036;2022-08-05T15:11:11;32.50;44.20
55121;DHT22;41019;48.512;9.036;2022-08-05T15:13:37;32.60;44.30
55121;DHT22;41019;48.512;9.036;2022-08-05T15:16:03;32.50;44.00
55121;DHT22;41019;48.512;9.036;2022-08-05T15:18:30;32.60;44.30
55121;DHT22;41019;48.512;9.036;2022-08-05T15:20:56;32.80;43.90
55121;DHT22;41019;48.512;9.036;2022-08-05T15:23:21;32.90;42.80
55121;DHT22;41019;48.512;9.036;2022-08-05T15:25:47;32.90;42.80
55121;DHT22;41019;48.512;9.036;2022-08-05T15:28:14;32.80;42.30
55121;DHT22;41019;48.512;9.036;2022-08-05T15:30:40;32.90;43.60
55121;DHT22;41019;48.512;9.036;2022-08-05T15:33:06;33.10;42.50
55121;DHT22;41019;48.512;9.036;2022-08-05T15:35:32;33.20;42.10
55121;DHT22;41019;48.512;9.036;2022-08-05T15:37:58;33.30;41.80
55121;DHT22;41019;48.512;9.036;2022-08-05T15:40:24;33.50;41.90
55121;DHT22;41019;48.512;9.036;2022-08-05T15:42:51;33.60;41.00
55121;DHT22;41019;48.512;9.036;2022-08-05T15:45:17;33.70;40.10
55121;DHT22;41019;48.512;9.036;2022-08-05T15:47:43;33.90;39.80
55121;DHT22;41019;48.512;9.036;2022-08-05T15:50:11;34.00;39.60
55121;DHT22;41019;48.512;9.036;2022-08-05T15:52:38;34.10;39.10
55121;DHT22;41019;48.512;9.036;2022-08-05T15:55:06;34.10;39.00
55121;DHT22;41019;48.512;9.036;2022-08-05T15:57:32;34.00;39.30
55121;DHT22;41019;48.512;9.036;2022-08-05T15:59:58;33.90;39.50
55121;DHT22;41019;48.512;9.036;2022-08-05T16:02:24;33.80;39.30
55121;DHT22;41019;48.512;9.036;2022-08-05T16:04:50;33.60;39.70
55121;DHT22;41019;48.512;9.036;2022-08-05T16:07:18;33.60;39.90
55121;DHT22;41019;48.512;9.036;2022-08-05T16:09:46;33.50;40.50